sensor_id;sensor_type;location;lat;lon;timestamp;temperature;humidity
28247;DHT22;66191;53.178;22.058;2023-04-15T00:02:13;11.10;98.90
28247;DHT22;66191;53.178;22.058;2023-04-15T00:04:48;11.10;98.90
28247;DHT22;66191;53.178;22.058;2023-04-15T00:07:20;11.10;98.90
28247;DHT22;66191;53.178;22.058;2023-04-15T00:09:53;11.10;99.00
28247;DHT22;66191;53.178;22.058;2023-04-15T00:12:25;11.10;99.00
28247;DHT22;66191;53.178;22.058;2023-04-15T00:14:59;11.10;99.10
28247;DHT22;66191;53.178;22.058;2023-04-15T00:17:32;11.10;99.10
28247;DHT22;66191;53.178;22.058;2023-04-15T00:20:06;11.10;99.30
28247;DHT22;66191;53.178;22.058;2023-04-15T00:22:37;11.10;99.30
28247;DHT22;66191;53.178;22.058;2023-04-15T00:25:08;11.10;99.40
28247;DHT22;66191;53.178;22.058;2023-04-15T00:27:39;11.10;99.50
28247;DHT22;66191;53.178;22.058;2023-04-15T00:30:13;11.10;99.50
28247;DHT22;66191;53.178;22.058;2023-04-15T00:32:45;11.00;99.60
28247;DHT22;66191;53.178;22.058;2023-04-15T00:35:21;11.00;99.60
28247;DHT22;66191;53.178;22.058;2023-04-15T00:37:52;11.00;99.70
28247;DHT22;66191;53.178;22.058;2023-04-15T00:40:24;11.00;99.70
28247;DHT22;66191;53.178;22.058;2023-04-15T00:42:56;11.00;99.80
28247;DHT22;66191;53.178;22.058;2023-04-15T00:45:30;10.90;99.80
28247;DHT22;66191;53.178;22.058;2023-04-15T00:48:02;10.90;99.90
28247;DHT22;66191;53.178;22.058;2023-04-15T00:50:33;10.90;99.90
28247;DHT22;66191;53.178;22.058;2023-04-15T00:53:05;10.90;99.90
28247;DHT22;66191;53.178;22.058;2023-04-15T00:55:37;10.90;99.90
28247;DHT22;66191;53.178;22.058;2023-04-15T00:58:10;10.90;99.90
28247;DHT22;66191;53.178;22.058;2023-04-15T01:00:45;10.90;99.90
28247;DHT22;66191;53.178;22.058;2023-04-15T01:03:17;10.90;99.90
28247;DHT22;66191;53.178;22.058;2023-04-15T01:05:50;10.90;99.90
28247;DHT22;66191;53.178;22.058;2023-04-15T01:08:26;10.90;99.90
28247;DHT22;66191;53.178;22.058;2023-04-15T01:10:57;10.90;99.90
28247;DHT22;66191;53.178;22.058;2023-04-15T01:13:31;10.90;99.90
28247;DHT22;66191;53.178;22.058;2023-04-15T01:16:06;10.90;99.90
28247;DHT22;66191;53.178;22.058;2023-04-15T01:18:38;10.90;99.80
28247;DHT22;66191;53.178;22.058;2023-04-15T01:21:10;10.90;99.80
28247;DHT22;66191;53.178;22.058;2023-04-15T01:23:41;10.90;99.80
28247;DHT22;66191;53.178;22.058;2023-04-15T01:26:17;10.90;99.70
28247;DHT22;66191;53.178;22.058;2023-04-15T01:28:50;10.90;99.60
28247;DHT22;66191;53.178;22.058;2023-04-15T01:31:21;10.90;99.60
28247;DHT22;66191;53.178;22.058;2023-04-15T01:33:53;10.90;99.40
28247;DHT22;66191;53.178;22.058;2023-04-15T01:36:24;10.90;99.50
28247;DHT22;66191;53.178;22.058;2023-04-15T01:38:55;10.90;99.50
28247;DHT22;66191;53.178;22.058;2023-04-15T01:41:29;10.90;99.40
28247;DHT22;66191;53.178;22.058;2023-04-15T01:44:00;10.90;99.30
28247;DHT22;66191;53.178;22.058;2023-04-15T01:46:32;10.90;99.00
28247;DHT22;66191;53.178;22.058;2023-04-15T01:49:03;10.90;99.00
28247;DHT22;66191;53.178;22.058;2023-04-15T01:51:35;10.90;99.00
28247;DHT22;66191;53.178;22.058;2023-04-15T01:54:06;10.90;98.70
28247;DHT22;66191;53.178;22.058;2023-04-15T01:56:40;10.90;98.70
28247;DHT22;66191;53.178;22.058;2023-04-15T01:59:13;10.90;98.60
28247;DHT22;66191;53.178;22.058;2023-04-15T02:01:43;10.90;98.50
28247;DHT22;66191;53.178;22.058;2023-04-15T02:04:15;10.90;98.50
28247;DHT22;66191;53.178;22.058;2023-04-15T02:06:46;10.90;98.50
28247;DHT22;66191;53.178;22.058;2023-04-15T02:09:17;10.90;98.40
28247;DHT22;66191;53.178;22.058;2023-04-15T02:11:51;10.90;98.20
28247;DHT22;66191;53.178;22.058;2023-04-15T02:14:24;10.90;98.30
28247;DHT22;66191;53.178;22.058;2023-04-15T02:16:56;10.80;98.40
28247;DHT22;66191;53.178;22.058;2023-04-15T02:19:34;10.80;98.40
28247;DHT22;66191;53.178;22.058;2023-04-15T02:22:09;10.80;98.50
28247;DHT22;66191;53.178;22.058;2023-04-15T02:24:46;10.90;98.40
28247;DHT22;66191;53.178;22.058;2023-04-15T02:27:19;10.80;98.60
28247;DHT22;66191;53.178;22.058;2023-04-15T02:29:51;10.80;98.30
28247;DHT22;66191;53.178;22.058;2023-04-15T02:32:23;10.90;98.20
28247;DHT22;66191;53.178;22.058;2023-04-15T02:35:01;10.90;98.00
28247;DHT22;66191;53.178;22.058;2023-04-15T02:37:32;10.90;97.70
28247;DHT22;66191;53.178;22.058;2023-04-15T02:40:10;10.80;97.70
28247;DHT22;66191;53.178;22.058;2023-04-15T02:42:45;10.90;97.80
28247;DHT22;66191;53.178;22.058;2023-04-15T02:45:17;10.90;97.40
28247;DHT22;66191;53.178;22.058;2023-04-15T02:47:51;10.80;97.50
28247;DHT22;66191;53.178;22.058;2023-04-15T02:50:26;10.80;97.40
28247;DHT22;66191;53.178;22.058;2023-04-15T02:53:04;10.80;97.40
28247;DHT22;66191;53.178;22.058;2023-04-15T02:55:36;10.80;97.60
28247;DHT22;66191;53.178;22.058;2023-04-15T02:58:17;10.80;97.60
28247;DHT22;66191;53.178;22.058;2023-04-15T03:00:50;10.80;97.70
28247;DHT22;66191;53.178;22.058;2023-04-15T03:03:21;10.80;97.60
28247;DHT22;66191;53.178;22.058;2023-04-15T03:05:55;10.80;97.70
28247;DHT22;66191;53.178;22.058;2023-04-15T03:08:27;10.80;97.70
28247;DHT22;66191;53.178;22.058;2023-04-15T03:11:00;10.80;97.70
28247;DHT22;66191;53.178;22.058;2023-04-15T03:13:37;10.80;97.80
28247;DHT22;66191;53.178;22.058;2023-04-15T03:16:21;10.80;97.90
28247;DHT22;66191;53.178;22.058;2023-04-15T03:18:52;10.70;97.90
28247;DHT22;66191;53.178;22.058;2023-04-15T03:21:25;10.70;98.10
28247;DHT22;66191;53.178;22.058;2023-04-15T03:23:57;10.70;98.10
28247;DHT22;66191;53.178;22.058;2023-04-15T03:26:29;10.70;98.10
28247;DHT22;66191;53.178;22.058;2023-04-15T03:29:10;10.70;98.10
28247;DHT22;66191;53.178;22.058;2023-04-15T03:31:45;10.70;97.80
28247;DHT22;66191;53.178;22.058;2023-04-15T03:34:16;10.70;97.80
28247;DHT22;66191;53.178;22.058;2023-04-15T03:36:48;10.70;97.60
28247;DHT22;66191;53.178;22.058;2023-04-15T03:39:20;10.70;97.60
28247;DHT22;66191;53.178;22.058;2023-04-15T03:41:55;10.60;97.60
28247;DHT22;66191;53.178;22.058;2023-04-15T03:44:29;10.70;97.60
28247;DHT22;66191;53.178;22.058;2023-04-15T03:47:03;10.70;97.60
28247;DHT22;66191;53.178;22.058;2023-04-15T03:49:36;10.60;97.60
28247;DHT22;66191;53.178;22.058;2023-04-15T03:52:09;10.60;97.70
28247;DHT22;66191;53.178;22.058;2023-04-15T03:54:40;10.70;97.70
28247;DHT22;66191;53.178;22.058;2023-04-15T03:57:12;10.60;97.60
28247;DHT22;66191;53.178;22.058;2023-04-15T03:59:45;10.60;97.70
28247;DHT22;66191;53.178;22.058;2023-04-15T04:02:17;10.60;97.70
28247;DHT22;66191;53.178;22.058;2023-04-15T04:04:49;10.60;97.70
28247;DHT22;66191;53.178;22.058;2023-04-15T04:07:23;10.70;97.80
28247;DHT22;66191;53.178;22.058;2023-04-15T04:09:57;10.60;97.80
28247;DHT22;66191;53.178;22.058;2023-04-15T04:12:28;10.60;97.80
28247;DHT22;66191;53.178;22.058;2023-04-15T04:15:07;10.60;98.00
28247;DHT22;66191;53.178;22.058;2023-04-15T04:17:40;10.60;98.00
28247;DHT22;66191;53.178;22.058;2023-04-15T04:20:11;10.70;98.20
28247;DHT22;66191;53.178;22.058;2023-04-15T04:22:43;10.70;98.40
28247;DHT22;66191;53.178;22.058;2023-04-15T04:25:14;10.70;98.50
28247;DHT22;66191;53.178;22.058;2023-04-15T04:28:03;10.70;98.30
28247;DHT22;66191;53.178;22.058;2023-04-15T04:31:02;10.70;98.30
28247;DHT22;66191;53.178;22.058;2023-04-15T04:34:06;10.80;98.30
28247;DHT22;66191;53.178;22.058;2023-04-15T04:36:55;10.80;98.40
28247;DHT22;66191;53.178;22.058;2023-04-15T04:39:42;10.80;98.40
28247;DHT22;66191;53.178;22.058;2023-04-15T04:42:21;10.80;98.50
28247;DHT22;66191;53.178;22.058;2023-04-15T04:46:05;10.80;98.60
28247;DHT22;66191;53.178;22.058;2023-04-15T04:49:08;10.80;98.60
28247;DHT22;66191;53.178;22.058;2023-04-15T04:51:39;10.80;98.80
28247;DHT22;66191;53.178;22.058;2023-04-15T04:54:11;10.80;98.80
28247;DHT22;66191;53.178;22.058;2023-04-15T04:56:48;10.90;99.00
28247;DHT22;66191;53.178;22.058;2023-04-15T04:59:50;10.90;99.10
28247;DHT22;66191;53.178;22.058;2023-04-15T05:02:43;10.90;99.20
28247;DHT22;66191;53.178;22.058;2023-04-15T05:06:08;10.90;99.10
28247;DHT22;66191;53.178;22.058;2023-04-15T05:08:42;10.90;98.90
28247;DHT22;66191;53.178;22.058;2023-04-15T05:11:43;11.00;99.00
28247;DHT22;66191;53.178;22.058;2023-04-15T05:14:39;11.00;98.60
28247;DHT22;66191;53.178;22.058;2023-04-15T05:20:38;11.00;98.60
28247;DHT22;66191;53.178;22.058;2023-04-15T05:24:02;10.90;98.70
28247;DHT22;66191;53.178;22.058;2023-04-15T05:26:44;11.00;98.50
28247;DHT22;66191;53.178;22.058;2023-04-15T05:29:36;11.00;98.60
28247;DHT22;66191;53.178;22.058;2023-04-15T05:32:26;10.90;98.60
28247;DHT22;66191;53.178;22.058;2023-04-15T05:35:05;10.90;98.60
28247;DHT22;66191;53.178;22.058;2023-04-15T05:38:40;10.90;98.70
28247;DHT22;66191;53.178;22.058;2023-04-15T05:42:28;10.80;98.70
28247;DHT22;66191;53.178;22.058;2023-04-15T05:45:31;10.90;98.80
28247;DHT22;66191;53.178;22.058;2023-04-15T05:48:52;10.80;98.70
28247;DHT22;66191;53.178;22.058;2023-04-15T05:51:57;10.80;98.80
28247;DHT22;66191;53.178;22.058;2023-04-15T05:55:08;10.80;98.80
28247;DHT22;66191;53.178;22.058;2023-04-15T05:58:07;10.80;98.80
28247;DHT22;66191;53.178;22.058;2023-04-15T06:01:10;10.90;98.70
28247;DHT22;66191;53.178;22.058;2023-04-15T06:04:28;10.80;98.60
28247;DHT22;66191;53.178;22.058;2023-04-15T06:07:21;10.80;98.60
28247;DHT22;66191;53.178;22.058;2023-04-15T06:10:34;10.90;98.70
28247;DHT22;66191;53.178;22.058;2023-04-15T06:13:12;10.90;98.50
28247;DHT22;66191;53.178;22.058;2023-04-15T06:27:11;10.90;98.50
28247;DHT22;66191;53.178;22.058;2023-04-15T06:38:21;10.80;98.70
28247;DHT22;66191;53.178;22.058;2023-04-15T06:41:51;10.80;98.90
28247;DHT22;66191;53.178;22.058;2023-04-15T06:45:05;10.80;98.90
28247;DHT22;66191;53.178;22.058;2023-04-15T06:48:04;10.80;99.10
28247;DHT22;66191;53.178;22.058;2023-04-15T06:50:52;10.80;99.10
28247;DHT22;66191;53.178;22.058;2023-04-15T06:53:42;10.80;99.10
28247;DHT22;66191;53.178;22.058;2023-04-15T07:03:32;10.80;99.10
28247;DHT22;66191;53.178;22.058;2023-04-15T07:06:47;10.80;99.40
28247;DHT22;66191;53.178;22.058;2023-04-15T07:10:02;10.80;99.10
28247;DHT22;66191;53.178;22.058;2023-04-15T07:13:11;10.80;99.20
28247;DHT22;66191;53.178;22.058;2023-04-15T07:16:37;10.80;99.20
28247;DHT22;66191;53.178;22.058;2023-04-15T07:19:37;10.80;99.30
28247;DHT22;66191;53.178;22.058;2023-04-15T07:26:31;10.70;99.30
28247;DHT22;66191;53.178;22.058;2023-04-15T07:29:51;10.70;99.40
28247;DHT22;66191;53.178;22.058;2023-04-15T07:33:43;10.70;99.40
28247;DHT22;66191;53.178;22.058;2023-04-15T07:36:42;10.70;99.40
28247;DHT22;66191;53.178;22.058;2023-04-15T07:39:43;10.80;99.20
28247;DHT22;66191;53.178;22.058;2023-04-15T07:43:02;10.80;99.30
28247;DHT22;66191;53.178;22.058;2023-04-15T07:51:20;10.70;99.60
28247;DHT22;66191;53.178;22.058;2023-04-15T07:54:18;10.70;99.60
28247;DHT22;66191;53.178;22.058;2023-04-15T07:57:27;10.70;99.70
28247;DHT22;66191;53.178;22.058;2023-04-15T08:00:48;10.80;99.70
28247;DHT22;66191;53.178;22.058;2023-04-15T08:03:44;10.80;99.60
28247;DHT22;66191;53.178;22.058;2023-04-15T08:06:44;10.80;99.40
28247;DHT22;66191;53.178;22.058;2023-04-15T08:09:46;10.80;99.20
28247;DHT22;66191;53.178;22.058;2023-04-15T08:12:39;10.80;99.30
28247;DHT22;66191;53.178;22.058;2023-04-15T08:16:25;10.80;99.40
28247;DHT22;66191;53.178;22.058;2023-04-15T08:18:50;10.80;99.40
28247;DHT22;66191;53.178;22.058;2023-04-15T08:21:22;10.80;99.30
28247;DHT22;66191;53.178;22.058;2023-04-15T08:31:25;10.80;99.10
28247;DHT22;66191;53.178;22.058;2023-04-15T08:34:02;10.90;99.00
28247;DHT22;66191;53.178;22.058;2023-04-15T08:36:36;10.90;98.80
28247;DHT22;66191;53.178;22.058;2023-04-15T08:39:17;10.90;98.70
28247;DHT22;66191;53.178;22.058;2023-04-15T08:41:55;10.80;98.70
28247;DHT22;66191;53.178;22.058;2023-04-15T08:45:13;10.90;98.80
28247;DHT22;66191;53.178;22.058;2023-04-15T08:48:02;10.90;98.70
28247;DHT22;66191;53.178;22.058;2023-04-15T08:51:36;10.90;98.80
28247;DHT22;66191;53.178;22.058;2023-04-15T08:54:56;10.90;98.80
28247;DHT22;66191;53.178;22.058;2023-04-15T09:21:50;10.90;99.50
28247;DHT22;66191;53.178;22.058;2023-04-15T09:34:20;10.80;99.50
28247;DHT22;66191;53.178;22.058;2023-04-15T09:37:14;10.80;99.50
28247;DHT22;66191;53.178;22.058;2023-04-15T09:39:59;10.80;99.50
28247;DHT22;66191;53.178;22.058;2023-04-15T09:42:36;10.80;99.70
28247;DHT22;66191;53.178;22.058;2023-04-15T09:45:12;10.80;99.90
28247;DHT22;66191;53.178;22.058;2023-04-15T09:47:47;10.70;99.90
28247;DHT22;66191;53.178;22.058;2023-04-15T09:50:23;10.70;99.90
28247;DHT22;66191;53.178;22.058;2023-04-15T09:52:57;10.70;99.90
28247;DHT22;66191;53.178;22.058;2023-04-15T09:55:27;10.70;99.90
28247;DHT22;66191;53.178;22.058;2023-04-15T09:58:07;10.70;99.90
28247;DHT22;66191;53.178;22.058;2023-04-15T10:00:38;10.70;99.90
28247;DHT22;66191;53.178;22.058;2023-04-15T10:03:09;10.70;99.90
28247;DHT22;66191;53.178;22.058;2023-04-15T10:05:43;10.70;99.90
28247;DHT22;66191;53.178;22.058;2023-04-15T10:08:14;10.60;99.90
28247;DHT22;66191;53.178;22.058;2023-04-15T10:10:48;10.60;99.90
28247;DHT22;66191;53.178;22.058;2023-04-15T10:13:20;10.60;99.90
28247;DHT22;66191;53.178;22.058;2023-04-15T10:15:56;10.60;99.80
28247;DHT22;66191;53.178;22.058;2023-04-15T10:18:29;10.60;99.90
28247;DHT22;66191;53.178;22.058;2023-04-15T10:21:05;10.70;99.90
28247;DHT22;66191;53.178;22.058;2023-04-15T10:23:36;10.70;99.90
28247;DHT22;66191;53.178;22.058;2023-04-15T10:26:08;10.70;99.90
28247;DHT22;66191;53.178;22.058;2023-04-15T10:28:41;10.70;99.90
28247;DHT22;66191;53.178;22.058;2023-04-15T10:31:13;10.80;99.90
28247;DHT22;66191;53.178;22.058;2023-04-15T10:33:45;10.80;99.90
28247;DHT22;66191;53.178;22.058;2023-04-15T10:36:20;10.80;99.90
28247;DHT22;66191;53.178;22.058;2023-04-15T10:38:51;10.80;99.90
28247;DHT22;66191;53.178;22.058;2023-04-15T10:41:22;10.80;99.90
28247;DHT22;66191;53.178;22.058;2023-04-15T10:43:55;10.70;99.90
28247;DHT22;66191;53.178;22.058;2023-04-15T10:46:33;10.70;99.90
28247;DHT22;66191;53.178;22.058;2023-04-15T10:49:06;10.70;99.90
28247;DHT22;66191;53.178;22.058;2023-04-15T10:51:40;10.70;99.90
28247;DHT22;66191;53.178;22.058;2023-04-15T10:54:12;10.70;99.90
28247;DHT22;66191;53.178;22.058;2023-04-15T10:56:44;10.80;99.90
28247;DHT22;66191;53.178;22.058;2023-04-15T10:59:15;10.80;99.90
28247;DHT22;66191;53.178;22.058;2023-04-15T11:01:52;10.80;99.90
28247;DHT22;66191;53.178;22.058;2023-04-15T11:07:12;10.80;99.90
28247;DHT22;66191;53.178;22.058;2023-04-15T11:09:44;10.70;99.90
28247;DHT22;66191;53.178;22.058;2023-04-15T11:12:14;10.70;99.90
28247;DHT22;66191;53.178;22.058;2023-04-15T11:14:45;10.70;99.90
28247;DHT22;66191;53.178;22.058;2023-04-15T11:17:25;10.70;99.90
28247;DHT22;66191;53.178;22.058;2023-04-15T11:19:57;10.70;99.90
28247;DHT22;66191;53.178;22.058;2023-04-15T11:22:31;10.70;99.90
28247;DHT22;66191;53.178;22.058;2023-04-15T11:25:02;10.70;99.90
28247;DHT22;66191;53.178;22.058;2023-04-15T11:27:33;10.70;99.90
28247;DHT22;66191;53.178;22.058;2023-04-15T11:30:15;10.70;99.90
28247;DHT22;66191;53.178;22.058;2023-04-15T11:32:46;10.60;99.90
28247;DHT22;66191;53.178;22.058;2023-04-15T11:35:18;10.60;99.90
28247;DHT22;66191;53.178;22.058;2023-04-15T11:37:51;10.60;99.90
28247;DHT22;66191;53.178;22.058;2023-04-15T11:40:23;10.50;99.90
28247;DHT22;66191;53.178;22.058;2023-04-15T11:43:04;10.40;99.90
28247;DHT22;66191;53.178;22.058;2023-04-15T11:45:36;10.50;99.90
28247;DHT22;66191;53.178;22.058;2023-04-15T11:48:09;10.40;99.90
28247;DHT22;66191;53.178;22.058;2023-04-15T11:50:40;10.30;99.90
28247;DHT22;66191;53.178;22.058;2023-04-15T11:53:14;10.30;99.90
28247;DHT22;66191;53.178;22.058;2023-04-15T11:55:46;10.40;99.90
28247;DHT22;66191;53.178;22.058;2023-04-15T11:58:17;10.40;99.90
28247;DHT22;66191;53.178;22.058;2023-04-15T12:00:49;10.30;99.90
28247;DHT22;66191;53.178;22.058;2023-04-15T12:03:22;10.40;99.90
28247;DHT22;66191;53.178;22.058;2023-04-15T12:08:55;10.40;99.90
28247;DHT22;66191;53.178;22.058;2023-04-15T12:11:34;10.40;99.90
28247;DHT22;66191;53.178;22.058;2023-04-15T12:14:07;10.30;99.90
28247;DHT22;66191;53.178;22.058;2023-04-15T12:16:39;10.30;99.90
28247;DHT22;66191;53.178;22.058;2023-04-15T12:19:23;10.40;99.90
28247;DHT22;66191;53.178;22.058;2023-04-15T12:21:57;10.40;99.90
28247;DHT22;66191;53.178;22.058;2023-04-15T12:24:34;10.30;99.90
28247;DHT22;66191;53.178;22.058;2023-04-15T12:27:06;10.40;99.90
28247;DHT22;66191;53.178;22.058;2023-04-15T12:29:37;10.30;99.90
28247;DHT22;66191;53.178;22.058;2023-04-15T12:32:10;10.20;99.90
28247;DHT22;66191;53.178;22.058;2023-04-15T12:34:42;10.20;99.90
28247;DHT22;66191;53.178;22.058;2023-04-15T12:37:13;10.20;99.90
28247;DHT22;66191;53.178;22.058;2023-04-15T12:39:49;10.20;99.90
28247;DHT22;66191;53.178;22.058;2023-04-15T12:42:25;10.10;99.90
28247;DHT22;66191;53.178;22.058;2023-04-15T12:44:57;10.10;99.90
28247;DHT22;66191;53.178;22.058;2023-04-15T12:47:29;10.10;99.90
28247;DHT22;66191;53.178;22.058;2023-04-15T12:50:00;10.20;99.90
28247;DHT22;66191;53.178;22.058;2023-04-15T12:52:31;10.20;99.90
28247;DHT22;66191;53.178;22.058;2023-04-15T12:55:05;10.20;99.90
28247;DHT22;66191;53.178;22.058;2023-04-15T12:57:36;10.20;99.90
28247;DHT22;66191;53.178;22.058;2023-04-15T13:00:09;10.30;99.90
28247;DHT22;66191;53.178;22.058;2023-04-15T13:02:42;10.30;99.90
28247;DHT22;66191;53.178;22.058;2023-04-15T13:05:13;10.20;99.90
28247;DHT22;66191;53.178;22.058;2023-04-15T13:07:44;10.20;99.90
28247;DHT22;66191;53.178;22.058;2023-04-15T13:10:17;10.10;99.90
28247;DHT22;66191;53.178;22.058;2023-04-15T13:12:49;10.20;99.90
28247;DHT22;66191;53.178;22.058;2023-04-15T13:15:20;10.20;99.90
28247;DHT22;66191;53.178;22.058;2023-04-15T13:17:52;10.20;99.90
28247;DHT22;66191;53.178;22.058;2023-04-15T13:20:24;10.10;99.90
28247;DHT22;66191;53.178;22.058;2023-04-15T13:22:56;10.10;99.90
28247;DHT22;66191;53.178;22.058;2023-04-15T13:25:30;10.10;99.90
28247;DHT22;66191;53.178;22.058;2023-04-15T13:28:01;10.10;99.90
28247;DHT22;66191;53.178;22.058;2023-04-15T13:30:32;10.10;99.90
28247;DHT22;66191;53.178;22.058;2023-04-15T13:33:06;10.10;99.90
28247;DHT22;66191;53.178;22.058;2023-04-15T13:35:39;10.10;99.90
28247;DHT22;66191;53.178;22.058;2023-04-15T13:38:10;10.10;99.90
28247;DHT22;66191;53.178;22.058;2023-04-15T13:40:46;10.10;99.90
28247;DHT22;66191;53.178;22.058;2023-04-15T13:43:19;10.10;99.90
28247;DHT22;66191;53.178;22.058;2023-04-15T13:45:53;10.10;99.90
28247;DHT22;66191;53.178;22.058;2023-04-15T13:48:24;10.10;99.90
28247;DHT22;66191;53.178;22.058;2023-04-15T13:50:55;10.10;99.90
28247;DHT22;66191;53.178;22.058;2023-04-15T13:53:26;10.00;99.90
28247;DHT22;66191;53.178;22.058;2023-04-15T13:56:08;10.00;99.90
28247;DHT22;66191;53.178;22.058;2023-04-15T13:58:39;10.10;99.90
28247;DHT22;66191;53.178;22.058;2023-04-15T14:01:10;10.10;99.90
28247;DHT22;66191;53.178;22.058;2023-04-15T14:03:41;10.00;99.90
28247;DHT22;66191;53.178;22.058;2023-04-15T14:06:12;10.10;99.90
28247;DHT22;66191;53.178;22.058;2023-04-15T14:08:44;10.00;99.90
28247;DHT22;66191;53.178;22.058;2023-04-15T14:11:18;10.00;99.90
28247;DHT22;66191;53.178;22.058;2023-04-15T14:13:49;10.00;99.90
28247;DHT22;66191;53.178;22.058;2023-04-15T14:16:19;9.90;99.90
28247;DHT22;66191;53.178;22.058;2023-04-15T14:18:51;9.90;99.90
28247;DHT22;66191;53.178;22.058;2023-04-15T14:21:22;9.90;99.90
28247;DHT22;66191;53.178;22.058;2023-04-15T14:23:54;9.90;99.90
28247;DHT22;66191;53.178;22.058;2023-04-15T14:26:28;9.80;99.90
28247;DHT22;66191;53.178;22.058;2023-04-15T14:28:59;9.70;99.90
28247;DHT22;66191;53.178;22.058;2023-04-15T14:31:30;9.70;99.90
28247;DHT22;66191;53.178;22.058;2023-04-15T14:34:01;9.70;99.90
28247;DHT22;66191;53.178;22.058;2023-04-15T14:36:33;9.80;99.90
28247;DHT22;66191;53.178;22.058;2023-04-15T14:39:04;9.80;99.90
28247;DHT22;66191;53.178;22.058;2023-04-15T14:41:38;9.70;99.90
28247;DHT22;66191;53.178;22.058;2023-04-15T14:44:09;9.80;99.90
28247;DHT22;66191;53.178;22.058;2023-04-15T14:46:40;9.70;99.90
28247;DHT22;66191;53.178;22.058;2023-04-15T14:49:12;9.70;99.90
28247;DHT22;66191;53.178;22.058;2023-04-15T14:51:42;9.70;99.90
28247;DHT22;66191;53.178;22.058;2023-04-15T14:54:14;9.70;99.90
28247;DHT22;66191;53.178;22.058;2023-04-15T14:56:49;9.70;99.90
28247;DHT22;66191;53.178;22.058;2023-04-15T14:59:20;9.70;99.90
28247;DHT22;66191;53.178;22.058;2023-04-15T15:01:51;9.60;99.90
28247;DHT22;66191;53.178;22.058;2023-04-15T15:04:23;9.50;99.90
28247;DHT22;66191;53.178;22.058;2023-04-15T15:06:54;9.50;99.90
28247;DHT22;66191;53.178;22.058;2023-04-15T15:09:25;9.50;99.90
28247;DHT22;66191;53.178;22.058;2023-04-15T15:11:59;9.50;99.90
28247;DHT22;66191;53.178;22.058;2023-04-15T15:14:30;9.50;99.90
28247;DHT22;66191;53.178;22.058;2023-04-15T15:17:00;9.50;99.90
28247;DHT22;66191;53.178;22.058;2023-04-15T15:19:32;9.50;99.90
28247;DHT22;66191;53.178;22.058;2023-04-15T15:22:02;9.50;99.90
28247;DHT22;66191;53.178;22.058;2023-04-15T15:24:33;9.40;99.90
28247;DHT22;66191;53.178;22.058;2023-04-15T15:27:07;9.40;99.90
28247;DHT22;66191;53.178;22.058;2023-04-15T15:29:38;9.40;99.90
28247;DHT22;66191;53.178;22.058;2023-04-15T15:32:09;9.40;99.90
28247;DHT22;66191;53.178;22.058;2023-04-15T15:34:40;9.40;99.90
28247;DHT22;66191;53.178;22.058;2023-04-15T15:37:14;9.30;99.90
28247;DHT22;66191;53.178;22.058;2023-04-15T15:39:45;9.30;99.90
28247;DHT22;66191;53.178;22.058;2023-04-15T15:42:20;9.30;99.90
28247;DHT22;66191;53.178;22.058;2023-04-15T15:44:51;9.20;99.90
28247;DHT22;66191;53.178;22.058;2023-04-15T15:47:22;9.20;99.90
28247;DHT22;66191;53.178;22.058;2023-04-15T15:49:53;9.20;99.90
28247;DHT22;66191;53.178;22.058;2023-04-15T15:52:24;9.10;99.90
28247;DHT22;66191;53.178;22.058;2023-04-15T15:54:55;9.10;99.90
28247;DHT22;66191;53.178;22.058;2023-04-15T15:57:30;9.10;99.90
28247;DHT22;66191;53.178;22.058;2023-04-15T16:00:07;9.10;99.90
28247;DHT22;66191;53.178;22.058;2023-04-15T16:02:43;9.10;99.90
28247;DHT22;66191;53.178;22.058;2023-04-15T16:05:19;9.00;99.90
28247;DHT22;66191;53.178;22.058;2023-04-15T16:07:57;9.00;99.90
28247;DHT22;66191;53.178;22.058;2023-04-15T16:10:31;9.00;99.90
28247;DHT22;66191;53.178;22.058;2023-04-15T16:13:13;9.00;99.90
28247;DHT22;66191;53.178;22.058;2023-04-15T16:15:45;9.00;99.90
28247;DHT22;66191;53.178;22.058;2023-04-15T16:18:17;8.90;99.90
28247;DHT22;66191;53.178;22.058;2023-04-15T16:21:00;8.80;99.90
28247;DHT22;66191;53.178;22.058;2023-04-15T16:23:34;8.80;99.90
28247;DHT22;66191;53.178;22.058;2023-04-15T16:26:14;8.70;99.90
28247;DHT22;66191;53.178;22.058;2023-04-15T16:28:50;8.80;99.90
28247;DHT22;66191;53.178;22.058;2023-04-15T16:31:30;8.80;99.90
28247;DHT22;66191;53.178;22.058;2023-04-15T16:34:08;8.80;99.90
28247;DHT22;66191;53.178;22.058;2023-04-15T16:36:44;8.80;99.90
28247;DHT22;66191;53.178;22.058;2023-04-15T16:39:17;8.80;99.90
28247;DHT22;66191;53.178;22.058;2023-04-15T16:41:55;8.70;99.90
28247;DHT22;66191;53.178;22.058;2023-04-15T16:44:30;8.70;99.90
28247;DHT22;66191;53.178;22.058;2023-04-15T16:47:06;8.70;99.90
28247;DHT22;66191;53.178;22.058;2023-04-15T16:49:46;8.70;99.90
28247;DHT22;66191;53.178;22.058;2023-04-15T16:52:24;8.70;99.90
28247;DHT22;66191;53.178;22.058;2023-04-15T16:54:58;8.70;99.90
28247;DHT22;66191;53.178;22.058;2023-04-15T17:00:43;8.70;99.90
28247;DHT22;66191;53.178;22.058;2023-04-15T17:03:17;8.70;99.90
28247;DHT22;66191;53.178;22.058;2023-04-15T17:05:50;8.60;99.90
28247;DHT22;66191;53.178;22.058;2023-04-15T17:08:28;8.60;99.90
28247;DHT22;66191;53.178;22.058;2023-04-15T17:11:00;8.70;99.90
28247;DHT22;66191;53.178;22.058;2023-04-15T17:13:35;8.70;99.90
28247;DHT22;66191;53.178;22.058;2023-04-15T17:19:05;8.60;99.90
28247;DHT22;66191;53.178;22.058;2023-04-15T17:21:40;8.60;99.90
28247;DHT22;66191;53.178;22.058;2023-04-15T17:24:14;8.60;99.90
28247;DHT22;66191;53.178;22.058;2023-04-15T17:26:47;8.60;99.90
28247;DHT22;66191;53.178;22.058;2023-04-15T17:29:20;8.60;99.90
28247;DHT22;66191;53.178;22.058;2023-04-15T17:31:55;8.60;99.90
28247;DHT22;66191;53.178;22.058;2023-04-15T17:34:31;8.60;99.90
28247;DHT22;66191;53.178;22.058;2023-04-15T17:37:20;8.50;99.90
28247;DHT22;66191;53.178;22.058;2023-04-15T17:39:51;8.50;99.90
28247;DHT22;66191;53.178;22.058;2023-04-15T17:42:21;8.50;99.90
28247;DHT22;66191;53.178;22.058;2023-04-15T17:44:58;8.50;99.90
28247;DHT22;66191;53.178;22.058;2023-04-15T17:47:29;8.50;99.90
28247;DHT22;66191;53.178;22.058;2023-04-15T17:50:04;8.40;99.90
28247;DHT22;66191;53.178;22.058;2023-04-15T17:52:36;8.40;99.90
28247;DHT22;66191;53.178;22.058;2023-04-15T17:55:07;8.40;99.90
28247;DHT22;66191;53.178;22.058;2023-04-15T17:57:38;8.40;99.90
28247;DHT22;66191;53.178;22.058;2023-04-15T18:02:51;8.30;99.90
28247;DHT22;66191;53.178;22.058;2023-04-15T18:05:27;8.30;99.90
28247;DHT22;66191;53.178;22.058;2023-04-15T18:07:59;8.30;99.90